Time;durP1;ratioP1;P1;durP2;ratioP2;P2;SDS_P1;SDS_P2;PMS_P1;PMS_P2;Temp;Humidity;BMP_temperature;BMP_pressure;BME280_temperature;BME280_humidity;BME280_pressure;Samples;Min_cycle;Max_cycle;Signal;HPM_P1;HPM_P2
2021/07/21 00:01:34;;;;;;;0.85;0.68;;;29.20;55.00;;;;;;5047521;28;20106;-60
2021/07/21 00:04:00;;;;;;;1.48;0.60;;;29.20;55.10;;;;;;5046105;28;20060;-60
2021/07/21 00:06:26;;;;;;;0.57;0.57;;;29.20;55.00;;;;;;5047453;28;20135;-61
2021/07/21 00:08:52;;;;;;;1.27;0.80;;;29.20;55.00;;;;;;5047537;28;20474;-61
2021/07/21 00:14:11;;;;;;;1.33;0.82;;;29.20;54.90;;;;;;5039843;28;20136;-60
2021/07/21 00:16:39;;;;;;;1.27;0.52;;;29.20;54.90;;;;;;5043786;28;20065;-60
2021/07/21 00:21:52;;;;;;;0.70;0.70;;;29.20;54.80;;;;;;5013258;28;20052;-61
2021/07/21 00:24:18;;;;;;;1.20;0.60;;;29.10;54.70;;;;;;5047288;28;20693;-60
2021/07/21 00:26:44;;;;;;;2.90;0.60;;;29.10;54.70;;;;;;5049500;28;20503;-61
2021/07/21 00:29:10;;;;;;;0.73;0.50;;;29.10;54.60;;;;;;5051161;28;20064;-61
2021/07/21 00:31:36;;;;;;;9.85;0.60;;;29.10;54.60;;;;;;5051053;28;20140;-60
2021/07/21 00:34:03;;;;;;;0.95;0.57;;;29.10;54.70;;;;;;5040827;28;20160;-60
2021/07/21 00:36:29;;;;;;;2.10;0.60;;;29.10;54.70;;;;;;5049154;28;20085;-61
2021/07/21 00:38:57;;;;;;;0.60;0.38;;;29.10;54.60;;;;;;5050572;28;20136;-61
2021/07/21 00:41:25;;;;;;;1.30;0.40;;;29.10;54.60;;;;;;5049403;28;20057;-61
2021/07/21 00:43:51;;;;;;;4.38;0.73;;;29.10;54.50;;;;;;5049356;28;20531;-61
2021/07/21 00:46:17;;;;;;;1.55;0.70;;;29.10;54.40;;;;;;5050480;28;20190;-61
2021/07/21 00:48:44;;;;;;;1.98;0.50;;;29.10;54.50;;;;;;5048570;28;20057;-61
2021/07/21 00:51:12;;;;;;;2.97;0.60;;;29.10;54.50;;;;;;5050458;28;20579;-61
2021/07/21 00:53:38;;;;;;;6.35;0.55;;;29.10;54.50;;;;;;5032537;28;20568;-61
2021/07/21 00:56:06;;;;;;;1.25;0.40;;;29.10;54.50;;;;;;5049076;28;20482;-61
2021/07/21 00:58:32;;;;;;;0.85;0.35;;;29.10;54.60;;;;;;5036201;28;20081;-61
2021/07/21 01:00:58;;;;;;;1.38;0.63;;;29.10;54.40;;;;;;5050343;28;20139;-60
2021/07/21 01:03:24;;;;;;;1.17;0.30;;;29.10;54.40;;;;;;5048442;28;20053;-60
2021/07/21 01:05:51;;;;;;;3.30;0.47;;;29.10;54.40;;;;;;5050151;28;20114;-60
2021/07/21 01:08:19;;;;;;;0.47;0.47;;;29.10;54.40;;;;;;5049836;28;20084;-61
2021/07/21 01:11:11;;;;;;;1.33;0.40;;;29.00;54.40;;;;;;5048821;28;20057;-60
2021/07/21 01:13:56;;;;;;;1.48;0.60;;;29.00;54.20;;;;;;5049021;28;20110;-60
2021/07/21 01:16:30;;;;;;;1.65;0.50;;;29.00;54.20;;;;;;5048388;28;20088;-60
2021/07/21 01:19:14;;;;;;;0.50;0.50;;;29.00;54.30;;;;;;5050167;28;20563;-60
2021/07/21 01:22:01;;;;;;;0.82;0.35;;;29.00;54.30;;;;;;5048605;28;20060;-60
2021/07/21 01:25:01;;;;;;;1.33;0.57;;;29.00;54.30;;;;;;5048869;28;20088;-61
2021/07/21 01:27:36;;;;;;;0.80;0.50;;;28.90;54.50;;;;;;5048810;28;20106;-61
2021/07/21 01:30:09;;;;;;;3.30;0.40;;;28.90;54.30;;;;;;5050144;28;20145;-61
2021/07/21 01:32:46;;;;;;;7.32;0.70;;;28.90;54.30;;;;;;5048585;28;20148;-61
2021/07/21 01:35:18;;;;;;;0.90;0.63;;;28.90;54.40;;;;;;5047885;28;20128;-61
2021/07/21 01:37:53;;;;;;;2.35;0.40;;;28.90;54.40;;;;;;5047374;28;20049;-60
2021/07/21 01:40:25;;;;;;;0.60;0.60;;;28.90;54.40;;;;;;5049495;28;20067;-61
2021/07/21 01:42:57;;;;;;;0.77;0.40;;;29.00;54.50;;;;;;5048122;28;20059;-61
2021/07/21 01:45:30;;;;;;;1.95;0.43;;;29.00;54.40;;;;;;5048096;28;20461;-60
2021/07/21 01:47:59;;;;;;;0.68;0.50;;;28.90;54.30;;;;;;5049428;28;20064;-61
2021/07/21 01:50:26;;;;;;;0.95;0.50;;;28.90;54.30;;;;;;5047921;28;20148;-61
2021/07/21 01:52:54;;;;;;;1.02;0.45;;;28.90;54.30;;;;;;5049278;28;20087;-61
2021/07/21 01:55:22;;;;;;;1.58;0.38;;;28.90;54.40;;;;;;5048990;28;20052;-60
2021/07/21 01:57:50;;;;;;;1.15;0.32;;;28.80;54.40;;;;;;5040352;28;20089;-60
2021/07/21 02:00:35;;;;;;;2.22;0.50;;;28.90;54.50;;;;;;5046391;28;20136;-60
2021/07/21 02:03:02;;;;;;;1.90;0.63;;;28.90;54.50;;;;;;5049239;28;20139;-61
2021/07/21 02:05:43;;;;;;;1.10;0.40;;;28.90;54.60;;;;;;5048419;28;20052;-61
2021/07/21 02:08:11;;;;;;;4.05;0.52;;;28.80;54.50;;;;;;5049008;28;20100;-61
2021/07/21 02:10:38;;;;;;;1.70;0.57;;;28.80;54.60;;;;;;5041597;28;20053;-61
2021/07/21 02:13:12;;;;;;;1.77;0.60;;;28.90;54.60;;;;;;5042215;28;20516;-61
2021/07/21 02:15:46;;;;;;;0.25;0.20;;;28.90;54.70;;;;;;5047646;28;20120;-61
2021/07/21 02:18:17;;;;;;;3.35;0.35;;;28.80;54.60;;;;;;5047455;28;20089;-61
2021/07/21 02:20:45;;;;;;;0.40;0.40;;;28.80;54.70;;;;;;5048830;28;20056;-61
2021/07/21 02:23:16;;;;;;;0.35;0.35;;;28.80;54.80;;;;;;5047174;28;20092;-61
2021/07/21 02:25:46;;;;;;;1.00;0.40;;;28.80;55.30;;;;;;5048864;28;20123;-61
2021/07/21 02:28:15;;;;;;;0.90;0.35;;;28.80;54.70;;;;;;5047236;28;20131;-61
2021/07/21 02:30:46;;;;;;;3.67;0.50;;;28.80;54.80;;;;;;5048781;28;20420;-60
2021/07/21 02:33:26;;;;;;;2.15;0.43;;;28.80;54.80;;;;;;5048424;28;20072;-60
2021/07/21 02:35:53;;;;;;;3.67;0.40;;;28.80;55.10;;;;;;5045383;28;20183;-61
2021/07/21 02:38:20;;;;;;;0.90;0.45;;;28.80;55.00;;;;;;5047464;28;20045;-61
2021/07/21 02:40:55;;;;;;;0.82;0.40;;;28.80;55.10;;;;;;5046963;28;20614;-61
2021/07/21 02:43:25;;;;;;;0.88;0.57;;;28.80;55.00;;;;;;5048329;28;20165;-61
2021/07/21 02:45:53;;;;;;;1.48;0.32;;;28.80;55.00;;;;;;5048311;28;20057;-62
2021/07/21 02:48:19;;;;;;;2.95;0.50;;;28.80;55.00;;;;;;5046903;28;20095;-61
2021/07/21 02:50:53;;;;;;;0.95;0.40;;;28.80;55.00;;;;;;5048350;28;20063;-61
2021/07/21 02:53:25;;;;;;;1.65;0.25;;;28.80;55.00;;;;;;5046865;28;20157;-61
2021/07/21 02:56:26;;;;;;;2.35;0.57;;;28.80;55.10;;;;;;5038169;28;20092;-61
2021/07/21 02:59:04;;;;;;;1.33;0.38;;;28.80;55.00;;;;;;5047173;28;20063;-61
2021/07/21 03:01:35;;;;;;;0.40;0.40;;;28.80;55.10;;;;;;5047191;28;20144;-61
2021/07/21 03:04:03;;;;;;;1.00;0.50;;;28.80;55.10;;;;;;5047269;28;20107;-61
2021/07/21 03:06:31;;;;;;;1.40;0.57;;;28.80;54.90;;;;;;5046879;28;20045;-61
2021/07/21 03:09:00;;;;;;;0.38;0.38;;;28.80;55.00;;;;;;5046784;28;20056;-61
2021/07/21 03:11:40;;;;;;;2.55;0.57;;;28.70;54.90;;;;;;5048300;28;20103;-61
2021/07/21 03:14:07;;;;;;;5.05;0.82;;;28.70;54.90;;;;;;5048186;28;20424;-61
2021/07/21 03:16:47;;;;;;;3.28;0.32;;;28.70;54.90;;;;;;5048118;28;20084;-61
2021/07/21 03:19:39;;;;;;;0.57;0.30;;;28.70;54.90;;;;;;5033720;28;20068;-61
2021/07/21 03:22:10;;;;;;;2.17;0.40;;;28.70;54.90;;;;;;5035032;28;20132;-61
2021/07/21 03:24:49;;;;;;;2.72;0.30;;;28.70;55.00;;;;;;5046615;28;20049;-60
2021/07/21 03:27:25;;;;;;;2.40;0.65;;;28.70;55.00;;;;;;5047798;28;20214;-61
2021/07/21 03:30:12;;;;;;;3.10;0.45;;;28.70;55.10;;;;;;5047918;28;20118;-61
2021/07/21 03:32:55;;;;;;;1.27;0.55;;;28.70;55.10;;;;;;5046381;28;20485;-61
2021/07/21 03:35:26;;;;;;;1.05;0.45;;;28.70;55.10;;;;;;5044953;28;20065;-61
2021/07/21 03:37:56;;;;;;;0.70;0.70;;;28.70;55.10;;;;;;5063187;28;20053;-61
2021/07/21 03:40:28;;;;;;;18.42;2.30;;;28.60;55.10;;;;;;5045346;28;20064;-62
2021/07/21 03:43:13;;;;;;;2.50;0.88;;;28.60;55.10;;;;;;5036393;28;20056;-62
2021/07/21 03:45:51;;;;;;;1.60;0.52;;;28.60;55.20;;;;;;5046817;28;20114;-61
2021/07/21 03:48:18;;;;;;;3.40;0.70;;;28.60;55.10;;;;;;5047867;28;20056;-61
2021/07/21 03:51:05;;;;;;;3.72;0.70;;;28.60;55.10;;;;;;5046286;28;20155;-61
2021/07/21 03:53:43;;;;;;;0.90;0.50;;;28.60;55.10;;;;;;5046552;28;20060;-61
2021/07/21 03:56:12;;;;;;;7.95;0.40;;;28.70;55.10;;;;;;5046577;28;20491;-61
2021/07/21 03:58:51;;;;;;;0.30;0.30;;;28.60;55.10;;;;;;5046355;28;20057;-61
2021/07/21 04:01:25;;;;;;;0.85;0.45;;;28.60;55.20;;;;;;5049931;28;20183;-61
2021/07/21 04:03:56;;;;;;;3.83;0.70;;;28.60;55.30;;;;;;5050585;28;20049;-61
2021/07/21 04:06:30;;;;;;;0.98;0.15;;;28.70;55.30;;;;;;5039799;28;20132;-61
2021/07/21 04:09:07;;;;;;;3.03;0.60;;;28.60;55.30;;;;;;5037623;28;20064;-61
2021/07/21 04:11:34;;;;;;;2.47;0.28;;;28.60;55.20;;;;;;5051089;28;20500;-61
2021/07/21 04:14:05;;;;;;;0.95;0.35;;;28.70;55.20;;;;;;5049964;28;20060;-61
2021/07/21 04:16:52;;;;;;;1.30;0.60;;;28.60;55.20;;;;;;5050982;28;20139;-61
2021/07/21 04:19:20;;;;;;;0.70;0.38;;;28.60;55.20;;;;;;5049815;28;20489;-61
2021/07/21 04:21:49;;;;;;;2.75;0.50;;;28.70;55.20;;;;;;5036993;28;20424;-61
2021/07/21 04:24:19;;;;;;;0.50;0.50;;;28.60;55.10;;;;;;5049781;28;20144;-61
2021/07/21 04:26:48;;;;;;;2.15;0.55;;;28.60;55.10;;;;;;5036973;28;20063;-61
2021/07/21 04:29:21;;;;;;;5.70;0.80;;;28.60;55.10;;;;;;5049631;28;20574;-60
2021/07/21 04:31:48;;;;;;;3.42;0.50;;;28.60;55.10;;;;;;5051014;28;20556;-61
2021/07/21 04:34:15;;;;;;;1.15;0.35;;;28.70;55.10;;;;;;5050496;28;20526;-62
2021/07/21 04:36:43;;;;;;;1.08;0.68;;;28.60;55.10;;;;;;5050847;28;20500;-61
2021/07/21 04:39:21;;;;;;;8.02;0.40;;;28.60;54.90;;;;;;5049584;28;20169;-62
2021/07/21 04:42:13;;;;;;;2.85;0.40;;;28.60;55.00;;;;;;5047748;28;20107;-62
2021/07/21 04:44:41;;;;;;;17.50;2.15;;;28.60;54.80;;;;;;5026529;28;20132;-62
2021/07/21 04:47:09;;;;;;;6.78;1.05;;;28.60;54.90;;;;;;5043197;28;20059;-62
2021/07/21 04:49:42;;;;;;;8.55;1.02;;;28.60;54.90;;;;;;5037292;28;20171;-61
2021/07/21 04:52:15;;;;;;;4.55;0.90;;;28.60;54.90;;;;;;5049088;28;20140;-62
2021/07/21 04:54:41;;;;;;;0.77;0.40;;;28.60;54.80;;;;;;5050394;28;20061;-62
2021/07/21 04:57:10;;;;;;;1.65;0.30;;;28.60;54.60;;;;;;5049434;28;20432;-62
2021/07/21 04:59:45;;;;;;;3.67;0.68;;;28.60;54.30;;;;;;5047725;28;20132;-62
2021/07/21 05:02:12;;;;;;;4.47;0.40;;;28.60;54.30;;;;;;5049076;28;20079;-62
2021/07/21 05:04:38;;;;;;;0.30;0.30;;;28.60;54.30;;;;;;5048950;28;20053;-62
2021/07/21 05:07:16;;;;;;;3.28;0.50;;;28.60;54.30;;;;;;5049271;28;20092;-62
2021/07/21 05:09:58;;;;;;;0.90;0.30;;;28.60;54.20;;;;;;5036422;28;20148;-62
2021/07/21 05:12:25;;;;;;;0.32;0.20;;;28.60;54.20;;;;;;5049022;28;20081;-62
2021/07/21 05:14:56;;;;;;;1.63;0.30;;;28.60;54.10;;;;;;5047422;28;20513;-61
2021/07/21 05:17:34;;;;;;;1.77;0.20;;;28.60;54.00;;;;;;5029202;28;20582;-62
2021/07/21 05:20:05;;;;;;;1.70;0.20;;;28.60;54.00;;;;;;5030184;28;20053;-61
2021/07/21 05:22:35;;;;;;;1.70;0.20;;;28.60;53.80;;;;;;5034565;28;20172;-61
2021/07/21 05:25:03;;;;;;;0.32;0.10;;;28.60;53.70;;;;;;5028926;28;20440;-62
2021/07/21 05:27:39;;;;;;;0.60;0.32;;;28.60;53.90;;;;;;5027409;28;20502;-61
2021/07/21 05:30:06;;;;;;;5.95;0.40;;;28.60;54.10;;;;;;5027499;28;20188;-61
2021/07/21 05:32:50;;;;;;;0.93;0.30;;;28.60;54.10;;;;;;5027310;28;20135;-61
2021/07/21 05:35:17;;;;;;;3.85;1.48;;;28.60;54.10;;;;;;5034365;28;20133;-62
2021/07/21 05:37:56;;;;;;;1.95;0.20;;;28.60;54.20;;;;;;5027036;28;20474;-61
2021/07/21 05:40:25;;;;;;;0.60;0.25;;;28.60;54.30;;;;;;5028548;28;20148;-62
2021/07/21 05:42:57;;;;;;;2.63;0.50;;;28.60;54.50;;;;;;5028414;28;20100;-61
2021/07/21 05:45:26;;;;;;;0.40;0.40;;;28.60;54.40;;;;;;5027054;28;20120;-61
2021/07/21 05:47:56;;;;;;;1.40;0.40;;;28.60;54.60;;;;;;5028207;28;20056;-61
2021/07/21 05:50:22;;;;;;;2.83;0.60;;;28.60;54.70;;;;;;5028310;28;20156;-61
2021/07/21 05:52:58;;;;;;;1.10;0.35;;;28.60;54.70;;;;;;5027286;28;20478;-61
2021/07/21 05:55:39;;;;;;;3.88;0.50;;;28.60;54.80;;;;;;5001721;28;1136359;-62
2021/07/21 05:58:08;;;;;;;5.15;0.57;;;28.60;54.80;;;;;;5028256;28;20061;-61
2021/07/21 06:00:37;;;;;;;1.60;0.40;;;28.60;54.80;;;;;;5028437;28;20061;-62
2021/07/21 06:03:05;;;;;;;0.57;0.43;;;28.60;54.80;;;;;;5031447;28;20476;-61
2021/07/21 06:05:54;;;;;;;5.45;0.60;;;28.60;54.80;;;;;;5043198;28;20699;-62
2021/07/21 06:08:38;;;;;;;1.48;0.40;;;28.60;54.80;;;;;;5039255;28;20076;-63
2021/07/21 06:11:19;;;;;;;1.15;0.50;;;28.60;54.80;;;;;;5034957;28;20057;-63
2021/07/21 06:13:45;;;;;;;2.67;0.30;;;28.60;54.80;;;;;;5047220;28;20149;-64
2021/07/21 06:16:15;;;;;;;2.45;0.35;;;28.60;54.80;;;;;;5047704;28;20075;-62
2021/07/21 06:18:42;;;;;;;3.13;0.40;;;28.60;54.50;;;;;;5048866;28;20140;-64
2021/07/21 06:21:09;;;;;;;7.95;0.30;;;28.60;54.50;;;;;;5047474;28;20057;-64
2021/07/21 06:23:45;;;;;;;2.00;0.30;;;28.60;54.50;;;;;;5046951;28;20096;-62
2021/07/21 06:26:12;;;;;;;3.60;0.45;;;28.60;54.20;;;;;;5048441;28;20107;-61
2021/07/21 06:29:08;;;;;;;1.30;0.60;;;28.60;54.60;;;;;;5047278;28;20144;-62
2021/07/21 06:31:35;;;;;;;6.95;0.40;;;28.60;54.70;;;;;;5047240;28;20088;-62
2021/07/21 06:34:03;;;;;;;7.40;0.40;;;28.60;54.70;;;;;;5048697;28;20064;-62
2021/07/21 06:36:29;;;;;;;1.23;0.30;;;28.60;54.80;;;;;;5027406;28;20191;-62
2021/07/21 06:38:56;;;;;;;0.82;0.28;;;28.60;54.90;;;;;;5026952;28;20789;-63
2021/07/21 06:41:30;;;;;;;1.63;0.43;;;28.60;55.20;;;;;;5028752;28;20171;-60
2021/07/21 06:44:00;;;;;;;0.93;0.40;;;28.60;55.20;;;;;;5027122;28;20304;-60
2021/07/21 06:46:49;;;;;;;2.40;0.50;;;28.50;54.90;;;;;;5028267;28;20136;-60
2021/07/21 06:49:20;;;;;;;18.02;2.15;;;28.60;55.10;;;;;;5027011;28;20125;-60
2021/07/21 06:51:46;;;;;;;4.85;0.30;;;28.60;55.30;;;;;;5028498;28;20053;-62
2021/07/21 06:54:18;;;;;;;3.00;0.47;;;28.60;55.10;;;;;;5031306;28;20061;-63
2021/07/21 06:57:03;;;;;;;10.50;0.40;;;28.60;55.20;;;;;;5048449;28;20424;-59
2021/07/21 07:00:08;;;;;;;3.25;0.32;;;28.60;55.10;;;;;;5048017;28;20124;-61
2021/07/21 07:03:14;;;;;;;1.08;0.47;;;28.60;55.30;;;;;;5004354;28;20058;-63
2021/07/21 07:05:41;;;;;;;4.38;0.30;;;28.60;55.20;;;;;;5005921;28;20136;-63
2021/07/21 07:08:45;;;;;;;2.08;0.60;;;28.60;55.20;;;;;;5022067;28;20068;-63
2021/07/21 07:11:21;;;;;;;6.88;0.40;;;28.60;55.00;;;;;;5028060;28;20169;-63
2021/07/21 07:13:46;;;;;;;0.30;0.28;;;28.60;55.00;;;;;;5027805;28;20424;-62
2021/07/21 07:16:14;;;;;;;1.48;0.65;;;28.50;54.80;;;;;;5028285;28;20049;-63
2021/07/21 07:18:40;;;;;;;0.35;0.35;;;28.50;54.70;;;;;;5044676;28;20572;-62
2021/07/21 07:21:06;;;;;;;1.65;0.50;;;28.60;54.60;;;;;;5028415;28;20849;-63
2021/07/21 07:23:32;;;;;;;4.95;0.57;;;28.50;54.50;;;;;;5027940;28;20049;-62
2021/07/21 07:25:58;;;;;;;5.47;0.63;;;28.50;54.40;;;;;;5028087;28;20081;-62
2021/07/21 07:28:24;;;;;;;5.75;0.38;;;28.50;54.60;;;;;;5027955;28;20541;-62
2021/07/21 07:30:50;;;;;;;3.13;0.30;;;28.50;54.60;;;;;;5027698;28;20053;-62
2021/07/21 07:33:16;;;;;;;4.22;0.50;;;28.60;54.60;;;;;;5027791;28;20160;-62
2021/07/21 07:35:43;;;;;;;2.65;0.30;;;28.60;54.50;;;;;;5036880;28;20504;-62
2021/07/21 07:38:11;;;;;;;1.48;0.30;;;28.60;54.20;;;;;;5037567;28;20204;-63
2021/07/21 07:40:40;;;;;;;0.70;0.38;;;28.60;54.10;;;;;;5031969;28;20132;-63
2021/07/21 07:43:07;;;;;;;0.30;0.13;;;28.60;54.20;;;;;;5031806;28;20054;-63
2021/07/21 07:45:34;;;;;;;0.45;0.20;;;28.60;53.90;;;;;;5031750;28;20402;-63
2021/07/21 07:48:00;;;;;;;2.70;0.30;;;28.60;53.50;;;;;;5031885;28;20541;-62
2021/07/21 07:50:26;;;;;;;1.00;0.30;;;28.60;53.40;;;;;;5031747;28;20148;-64
2021/07/21 07:52:52;;;;;;;2.08;0.20;;;28.60;53.30;;;;;;5031780;28;20061;-63
2021/07/21 07:55:18;;;;;;;2.08;0.10;;;28.60;53.50;;;;;;5035050;28;20119;-63
2021/07/21 07:57:44;;;;;;;3.28;0.30;;;28.60;53.50;;;;;;5031806;28;20637;-64
2021/07/21 08:00:11;;;;;;;0.60;0.10;;;28.60;53.50;;;;;;5036789;28;20060;-64
2021/07/21 08:02:42;;;;;;;0.23;0.23;;;28.60;53.60;;;;;;5041127;28;20135;-64
2021/07/21 08:05:10;;;;;;;4.28;0.20;;;28.60;53.60;;;;;;5031562;28;20889;-63
2021/07/21 08:07:35;;;;;;;1.42;0.25;;;28.60;53.70;;;;;;5031497;28;21368;-63
2021/07/21 08:10:04;;;;;;;1.27;0.28;;;28.60;53.80;;;;;;5041112;28;20064;-62
2021/07/21 08:12:31;;;;;;;2.15;0.30;;;28.60;53.70;;;;;;5034536;28;20505;-62
2021/07/21 08:14:57;;;;;;;1.58;0.47;;;28.60;53.50;;;;;;5030995;28;20060;-64
2021/07/21 08:17:23;;;;;;;6.75;0.70;;;28.60;53.40;;;;;;5041421;28;20128;-63
2021/07/21 08:19:50;;;;;;;0.45;0.10;;;28.60;53.10;;;;;;5050874;28;20134;-63
2021/07/21 08:22:17;;;;;;;4.57;0.28;;;28.60;53.30;;;;;;5051004;28;20063;-62
2021/07/21 08:24:43;;;;;;;0.95;0.35;;;28.60;53.20;;;;;;5033492;28;20160;-62
2021/07/21 08:27:11;;;;;;;0.90;0.20;;;28.60;52.80;;;;;;5031168;28;20053;-62
2021/07/21 08:29:37;;;;;;;2.30;0.28;;;28.60;52.50;;;;;;5030931;28;20076;-62
2021/07/21 08:32:04;;;;;;;2.45;0.30;;;28.60;52.40;;;;;;5030886;28;20057;-62
2021/07/21 08:34:33;;;;;;;2.83;0.30;;;28.60;52.50;;;;;;5044190;28;20060;-68
2021/07/21 08:36:59;;;;;;;4.90;0.57;;;28.60;52.50;;;;;;5030798;28;20108;-67
2021/07/21 08:39:25;;;;;;;0.40;0.40;;;28.70;52.60;;;;;;5031131;28;20116;-67
2021/07/21 08:41:52;;;;;;;0.57;0.20;;;28.60;52.50;;;;;;5030855;28;20089;-68
2021/07/21 08:44:18;;;;;;;0.20;0.20;;;28.70;52.80;;;;;;5043978;28;20899;-62
2021/07/21 08:46:45;;;;;;;0.20;0.20;;;28.70;53.00;;;;;;5041354;28;20475;-62
2021/07/21 08:49:11;;;;;;;0.60;0.43;;;28.70;53.00;;;;;;5032602;28;20566;-62
2021/07/21 08:51:37;;;;;;;2.83;0.20;;;28.70;53.10;;;;;;5030566;28;20048;-62
2021/07/21 08:54:04;;;;;;;0.63;0.32;;;28.70;53.10;;;;;;5041007;28;20173;-62
2021/07/21 08:56:30;;;;;;;0.30;0.30;;;28.70;53.20;;;;;;5030345;28;20480;-62
2021/07/21 08:58:57;;;;;;;0.85;0.40;;;28.70;53.10;;;;;;5030414;28;20499;-62
2021/07/21 09:01:24;;;;;;;0.43;0.20;;;28.70;53.20;;;;;;5030079;28;20149;-61
2021/07/21 09:03:50;;;;;;;0.68;0.30;;;28.70;53.20;;;;;;5042767;28;20053;-62
2021/07/21 09:06:16;;;;;;;1.92;0.28;;;28.70;53.20;;;;;;5030349;28;20506;-62
2021/07/21 09:08:43;;;;;;;5.43;0.60;;;28.70;53.30;;;;;;5030488;28;20134;-62
2021/07/21 09:11:11;;;;;;;11.18;0.90;;;28.70;53.00;;;;;;5030417;28;20068;-62
2021/07/21 09:13:39;;;;;;;6.03;0.52;;;28.70;52.90;;;;;;5030326;28;20057;-62
2021/07/21 09:16:06;;;;;;;5.18;0.70;;;28.70;52.70;;;;;;5030283;28;20141;-62
2021/07/21 09:18:52;;;;;;;3.10;0.70;;;28.70;52.60;;;;;;5048842;28;20135;-62
2021/07/21 09:21:20;;;;;;;1.85;0.40;;;28.70;52.60;;;;;;5034506;28;20547;-64
2021/07/21 09:23:49;;;;;;;1.85;0.40;;;28.70;52.50;;;;;;5029972;28;20058;-65
2021/07/21 09:26:22;;;;;;;1.48;0.40;;;28.70;52.40;;;;;;5029901;28;20513;-68
2021/07/21 09:28:51;;;;;;;0.47;0.38;;;28.70;52.30;;;;;;5029909;28;20136;-63
2021/07/21 09:31:32;;;;;;;1.15;0.25;;;28.70;52.50;;;;;;5042365;28;20065;-65
2021/07/21 09:34:09;;;;;;;1.55;0.47;;;28.70;52.70;;;;;;5029981;28;20136;-66
2021/07/21 09:36:35;;;;;;;2.10;0.38;;;28.70;52.70;;;;;;5036838;28;20138;-66
2021/07/21 09:39:03;;;;;;;0.47;0.13;;;28.70;52.70;;;;;;5049752;28;20215;-65
2021/07/21 09:41:29;;;;;;;0.55;0.30;;;28.70;52.60;;;;;;5049480;28;20139;-65
2021/07/21 09:44:03;;;;;;;0.80;0.30;;;28.70;52.60;;;;;;5049714;28;20143;-65
2021/07/21 09:46:33;;;;;;;2.55;0.73;;;28.70;52.70;;;;;;5041164;28;20128;-64
2021/07/21 09:48:59;;;;;;;3.25;0.60;;;28.70;52.70;;;;;;5032279;28;20058;-64
2021/07/21 09:51:36;;;;;;;0.85;0.30;;;28.70;52.90;;;;;;5029332;28;20068;-62
2021/07/21 09:54:16;;;;;;;1.33;0.40;;;28.70;52.90;;;;;;5029407;28;20213;-67
2021/07/21 09:56:46;;;;;;;2.50;0.35;;;28.70;52.80;;;;;;5029429;28;20057;-67
2021/07/21 09:59:19;;;;;;;1.02;0.40;;;28.70;52.90;;;;;;5034956;28;20060;-68
2021/07/21 10:01:45;;;;;;;0.57;0.40;;;28.80;53.10;;;;;;5047647;28;20057;-66
2021/07/21 10:04:11;;;;;;;1.40;0.40;;;28.70;53.20;;;;;;5049164;28;20065;-66
2021/07/21 10:06:40;;;;;;;1.58;0.70;;;28.80;53.30;;;;;;5049172;28;20131;-65
2021/07/21 10:09:07;;;;;;;3.50;0.30;;;28.80;53.30;;;;;;5041377;28;20103;-64
2021/07/21 10:11:37;;;;;;;0.90;0.85;;;28.80;53.60;;;;;;5028890;28;20053;-67
2021/07/21 10:14:03;;;;;;;0.50;0.40;;;28.80;53.00;;;;;;5028940;28;20161;-67
2021/07/21 10:16:40;;;;;;;0.90;0.50;;;28.80;52.70;;;;;;5030172;28;20191;-64
2021/07/21 10:19:12;;;;;;;0.55;0.43;;;28.80;52.50;;;;;;5048874;28;20088;-63
2021/07/21 10:21:40;;;;;;;1.63;0.40;;;28.80;52.40;;;;;;5048737;28;20090;-61
2021/07/21 10:24:07;;;;;;;2.28;0.55;;;28.80;52.30;;;;;;5049040;28;20463;-60
2021/07/21 10:26:34;;;;;;;1.00;0.57;;;28.80;52.30;;;;;;5048240;28;20139;-61
2021/07/21 10:29:00;;;;;;;2.80;0.50;;;28.70;52.30;;;;;;5048767;28;20092;-62
2021/07/21 10:31:27;;;;;;;0.40;0.40;;;28.70;52.40;;;;;;5048465;28;20079;-61
2021/07/21 10:33:54;;;;;;;2.03;0.82;;;28.70;52.40;;;;;;5048767;28;20556;-61
2021/07/21 10:36:21;;;;;;;0.70;0.70;;;28.70;52.40;;;;;;5029206;28;20585;-61
2021/07/21 10:38:48;;;;;;;0.90;0.50;;;28.70;52.60;;;;;;5028851;28;20060;-61
2021/07/21 10:41:15;;;;;;;1.52;0.30;;;28.70;52.60;;;;;;5028255;28;20136;-61
2021/07/21 10:43:51;;;;;;;5.13;0.47;;;28.70;52.70;;;;;;5029686;28;20076;-61
2021/07/21 10:46:44;;;;;;;0.70;0.65;;;28.70;52.70;;;;;;5028048;28;20140;-61
2021/07/21 10:49:23;;;;;;;2.88;0.50;;;28.70;52.80;;;;;;5033378;28;20055;-60
2021/07/21 10:55:17;;;;;;;1.05;0.50;;;28.70;53.10;;;;;;5015241;28;20580;-62
2021/07/21 11:00:36;;;;;;;2.53;0.60;;;28.70;53.30;;;;;;5048166;28;20385;-62
2021/07/21 11:03:18;;;;;;;0.40;0.40;;;28.70;53.40;;;;;;5047746;28;20453;-61
2021/07/21 11:05:51;;;;;;;2.33;0.68;;;28.70;53.40;;;;;;5035827;28;20064;-59
2021/07/21 11:08:19;;;;;;;1.17;0.50;;;28.70;53.40;;;;;;5032487;28;20096;-62
2021/07/21 11:10:50;;;;;;;1.27;0.50;;;28.70;53.50;;;;;;5028044;28;20057;-60
2021/07/21 11:13:28;;;;;;;0.68;0.40;;;28.70;53.40;;;;;;5028406;28;20277;-60
2021/07/21 11:15:56;;;;;;;3.25;0.75;;;28.70;53.30;;;;;;5028127;28;20779;-60
2021/07/21 11:18:22;;;;;;;2.35;0.73;;;28.70;53.50;;;;;;5046177;28;20048;-62
2021/07/21 11:20:57;;;;;;;1.38;0.77;;;28.70;53.60;;;;;;5047983;28;20049;-61
2021/07/21 11:23:41;;;;;;;5.57;1.08;;;28.70;53.80;;;;;;5047797;28;20144;-61
2021/07/21 11:26:29;;;;;;;1.65;0.50;;;28.70;53.80;;;;;;5046707;28;20057;-61
2021/07/21 11:28:56;;;;;;;0.90;0.60;;;28.70;53.90;;;;;;5047900;28;20111;-61
2021/07/21 11:31:50;;;;;;;1.15;0.93;;;28.80;54.00;;;;;;5047435;28;20076;-61
2021/07/21 11:34:33;;;;;;;0.68;0.68;;;28.80;54.00;;;;;;5046043;28;20474;-61
2021/07/21 11:37:00;;;;;;;;;;;28.70;54.00;;;;;;5037056;28;20532;-61
2021/07/21 11:39:36;;;;;;;12.98;1.98;;;28.80;54.10;;;;;;5039395;28;20460;-61
2021/07/21 11:42:04;;;;;;;0.60;0.60;;;28.80;54.00;;;;;;5027888;28;20057;-62
2021/07/21 11:44:38;;;;;;;1.95;1.08;;;28.80;54.10;;;;;;5041319;28;20144;-61
2021/07/21 11:47:13;;;;;;;0.63;0.60;;;28.80;54.00;;;;;;5027533;28;20058;-62
2021/07/21 11:49:54;;;;;;;2.63;0.80;;;28.80;54.00;;;;;;5027898;28;20517;-62
2021/07/21 11:52:22;;;;;;;0.88;0.88;;;28.80;54.50;;;;;;5026509;28;20111;-62
2021/07/21 11:54:50;;;;;;;4.93;0.88;;;28.80;53.90;;;;;;5027695;28;20144;-62
2021/07/21 11:57:16;;;;;;;4.10;1.08;;;28.80;53.90;;;;;;5041309;28;20153;-61
2021/07/21 11:59:46;;;;;;;2.67;0.88;;;28.80;54.50;;;;;;5027595;28;20054;-61
2021/07/21 12:02:17;;;;;;;3.42;1.10;;;28.80;53.90;;;;;;5031036;28;20187;-59
2021/07/21 12:04:49;;;;;;;2.60;0.80;;;28.80;54.00;;;;;;5035282;28;20057;-62
2021/07/21 12:07:17;;;;;;;4.65;1.05;;;28.80;54.00;;;;;;5027608;28;20065;-62
2021/07/21 12:09:46;;;;;;;0.95;0.90;;;28.80;54.00;;;;;;5027441;28;20451;-61
2021/07/21 12:12:17;;;;;;;1.05;0.98;;;28.80;54.10;;;;;;5034061;28;20048;-60
2021/07/21 12:14:49;;;;;;;3.85;1.35;;;28.80;54.20;;;;;;5045321;28;20560;-62
2021/07/21 12:17:16;;;;;;;4.85;0.93;;;28.80;54.20;;;;;;5036332;28;20106;-63
2021/07/21 12:19:52;;;;;;;0.98;0.88;;;28.80;54.20;;;;;;5046112;28;20050;-62
2021/07/21 12:22:18;;;;;;;1.65;1.15;;;28.80;54.10;;;;;;5049122;28;20159;-62
2021/07/21 12:24:50;;;;;;;1.75;1.13;;;28.80;53.90;;;;;;5050686;28;20152;-62
2021/07/21 12:27:44;;;;;;;1.70;1.10;;;28.80;53.90;;;;;;5050954;28;20053;-62
2021/07/21 12:30:11;;;;;;;2.28;1.33;;;28.80;53.80;;;;;;5051024;28;20139;-62
2021/07/21 12:32:38;;;;;;;3.65;1.23;;;28.80;53.90;;;;;;5049468;28;20053;-62
2021/07/21 12:35:09;;;;;;;2.63;1.30;;;28.80;53.90;;;;;;5031109;28;20140;-63
2021/07/21 12:37:41;;;;;;;6.93;1.50;;;28.80;53.80;;;;;;5030921;28;20555;-62
2021/07/21 12:40:19;;;;;;;5.07;1.20;;;28.80;53.80;;;;;;5040666;28;20299;-63
2021/07/21 12:42:46;;;;;;;1.38;1.27;;;28.80;53.70;;;;;;5032660;28;20572;-62
2021/07/21 12:45:15;;;;;;;3.80;1.20;;;28.80;53.70;;;;;;5030655;28;20057;-59
2021/07/21 12:48:01;;;;;;;6.95;1.15;;;28.80;53.80;;;;;;5030318;28;20058;-59
2021/07/21 12:50:38;;;;;;;2.53;1.15;;;28.70;53.70;;;;;;5030387;28;20132;-59
2021/07/21 12:53:07;;;;;;;5.80;1.65;;;28.80;53.80;;;;;;5030619;28;20056;-62
2021/07/21 12:55:34;;;;;;;1.85;1.27;;;28.80;53.80;;;;;;5030408;28;20132;-62
2021/07/21 12:58:03;;;;;;;2.05;1.45;;;28.80;53.80;;;;;;5030578;28;20057;-63
2021/07/21 13:00:29;;;;;;;1.65;1.52;;;28.80;53.90;;;;;;5030335;28;20077;-62
2021/07/21 13:03:07;;;;;;;1.52;1.42;;;28.80;53.90;;;;;;5039633;28;20136;-62
2021/07/21 13:05:40;;;;;;;4.35;1.45;;;28.80;54.00;;;;;;5031243;28;20053;-61
2021/07/21 13:08:08;;;;;;;2.80;1.63;;;28.80;54.00;;;;;;5030518;28;20132;-61
2021/07/21 13:10:44;;;;;;;5.55;1.65;;;28.80;54.10;;;;;;5048586;28;20057;-61
2021/07/21 13:13:27;;;;;;;1.98;1.73;;;28.80;54.20;;;;;;5031525;28;20096;-61
2021/07/21 13:16:00;;;;;;;3.55;1.70;;;28.80;54.10;;;;;;5047018;28;20402;-61
2021/07/21 13:18:33;;;;;;;3.58;1.40;;;28.80;54.20;;;;;;5048841;28;20136;-61
2021/07/21 13:20:59;;;;;;;3.60;1.45;;;28.80;54.20;;;;;;5049713;28;20123;-62
2021/07/21 13:23:27;;;;;;;6.28;1.38;;;28.80;54.10;;;;;;5049888;28;20516;-62